createdAt,value
2023-05-13T00:05:54.446Z,0.00
2023-05-13T00:20:54.125Z,0.00
2023-05-13T00:35:54.306Z,0.00
2023-05-13T00:50:54.573Z,0.00
2023-05-13T01:05:54.753Z,0.00
2023-05-13T01:20:54.871Z,0.00
2023-05-13T01:35:55.024Z,0.00
2023-05-13T01:50:55.193Z,0.00
2023-05-13T02:05:55.438Z,0.00
2023-05-13T02:20:55.586Z,0.00
2023-05-13T02:35:55.812Z,0.00
2023-05-13T02:50:56.662Z,12.00
2023-05-13T03:05:56.839Z,76.00
2023-05-13T03:20:57.075Z,276.00
2023-05-13T03:35:57.316Z,616.00
2023-05-13T03:50:57.702Z,2012.00
2023-05-13T04:05:57.785Z,1912.00
2023-05-13T04:20:58.238Z,2808.00
2023-05-13T04:35:58.891Z,3016.00
2023-05-13T04:50:59.020Z,4244.00
2023-05-13T05:05:59.986Z,4128.00
2023-05-13T05:21:01.788Z,5984.00
2023-05-13T05:36:02.192Z,6320.00
2023-05-13T05:51:02.305Z,6400.00
2023-05-13T06:06:02.437Z,6688.00
2023-05-13T06:21:03.053Z,6904.00
2023-05-13T06:36:03.574Z,7040.00
2023-05-13T06:51:04.201Z,7212.00
2023-05-13T07:06:04.264Z,7564.00
2023-05-13T07:21:04.435Z,7628.00
2023-05-13T07:36:04.396Z,7976.00
2023-05-13T07:51:05.427Z,7876.00
2023-05-13T08:06:05.449Z,7748.00
2023-05-13T08:21:05.535Z,7960.00
2023-05-13T08:36:05.618Z,8412.00
2023-05-13T08:51:06.302Z,8852.00
2023-05-13T09:06:06.462Z,10400.00
2023-05-13T09:21:07.892Z,8760.00
2023-05-13T09:36:08.401Z,9084.00
2023-05-13T09:51:08.551Z,9416.00
2023-05-13T10:06:08.886Z,10124.00
2023-05-13T10:21:08.649Z,10312.00
2023-05-13T10:36:08.916Z,11436.00
2023-05-13T10:51:09.010Z,42272.00
2023-05-13T11:06:08.991Z,44032.00
2023-05-13T11:21:09.104Z,50016.00
2023-05-13T11:36:09.101Z,59456.00
2023-05-13T11:51:09.226Z,60896.00
2023-05-13T12:06:10.225Z,66208.00
2023-05-13T12:21:10.342Z,63680.00
2023-05-13T12:36:10.355Z,66752.00
2023-05-13T12:51:10.924Z,86144.00
2023-05-13T13:06:11.632Z,94784.00
2023-05-13T13:21:11.715Z,83392.00
2023-05-13T13:36:11.662Z,66656.00
2023-05-13T13:51:12.337Z,44224.00
2023-05-13T14:06:12.482Z,61120.00
2023-05-13T14:21:12.533Z,62816.00
2023-05-13T14:36:12.615Z,59776.00
2023-05-13T14:51:12.730Z,8476.00
2023-05-13T15:06:12.816Z,56256.00
2023-05-13T15:21:12.865Z,50496.00
2023-05-13T15:36:13.057Z,61472.00
2023-05-13T15:51:13.077Z,41984.00
2023-05-13T16:06:13.254Z,31200.00
2023-05-13T16:21:13.415Z,26464.00
2023-05-13T16:36:13.579Z,2876.00
2023-05-13T16:51:13.838Z,2340.00
2023-05-13T17:06:16.096Z,2960.00
2023-05-13T17:21:16.699Z,2996.00
2023-05-13T17:36:16.786Z,2376.00
2023-05-13T17:51:16.887Z,1956.00
2023-05-13T18:06:17.238Z,1452.00
2023-05-13T18:21:17.048Z,1072.00
2023-05-13T18:36:17.724Z,512.00
2023-05-13T18:51:20.535Z,204.00
2023-05-13T19:06:20.935Z,48.00
2023-05-13T19:21:21.040Z,8.00
2023-05-13T19:36:21.475Z,0.00
2023-05-13T19:51:22.142Z,0.00
2023-05-13T20:06:22.218Z,0.00
2023-05-13T20:21:22.368Z,0.00
2023-05-13T20:36:22.384Z,0.00
2023-05-13T20:51:22.471Z,0.00
2023-05-13T21:06:22.550Z,0.00
2023-05-13T21:21:22.656Z,0.00
2023-05-13T21:36:22.763Z,0.00
2023-05-13T21:51:22.887Z,0.00
2023-05-13T22:06:22.983Z,0.00
2023-05-13T22:21:23.033Z,0.00
2023-05-13T22:36:23.112Z,0.00
2023-05-13T22:51:23.239Z,0.00
2023-05-13T23:06:23.827Z,0.00
2023-05-13T23:21:23.856Z,0.00
2023-05-13T23:36:23.955Z,0.00
2023-05-13T23:51:24.077Z,0.00
